Time;durP1;ratioP1;P1;durP2;ratioP2;P2;SDS_P1;SDS_P2;PMS_P1;PMS_P2;Temp;Humidity;BMP_temperature;BMP_pressure;BME280_temperature;BME280_humidity;BME280_pressure;Samples;Min_cycle;Max_cycle;Signal;HPM_P1;HPM_P2
2022/05/20 00:00:32;;;;;;;5.80;5.30;;;25.40;58.30;26.40;101332.00;;;;4989603;28;20177;-51
2022/05/20 00:02:58;;;;;;;5.38;4.88;;;25.40;58.70;26.40;101338.00;;;;4988132;28;20253;-51
2022/05/20 00:05:24;;;;;;;6.88;6.28;;;25.40;58.70;26.40;101338.00;;;;4989774;28;20181;-52
2022/05/20 00:07:50;;;;;;;5.70;5.25;;;25.40;58.40;26.40;101347.00;;;;4989659;28;20204;-52
2022/05/20 00:10:16;;;;;;;6.05;5.45;;;25.30;58.20;26.40;101352.00;;;;4989727;28;20191;-52
2022/05/20 00:12:42;;;;;;;5.65;5.00;;;25.30;58.20;26.40;101350.00;;;;4989152;28;20312;-51
2022/05/20 00:15:09;;;;;;;5.22;4.72;;;25.30;58.20;26.40;101344.00;;;;4989292;28;20180;-52
2022/05/20 00:17:35;;;;;;;7.88;7.18;;;25.30;58.10;26.30;101345.00;;;;4988850;28;20187;-53
2022/05/20 00:20:03;;;;;;;7.18;6.57;;;25.30;58.20;26.30;101356.00;;;;4989165;28;20196;-50
2022/05/20 00:22:29;;;;;;;7.05;6.00;;;25.30;58.30;26.30;101359.00;;;;4989480;28;20545;-51
2022/05/20 00:27:38;;;;;;;5.30;4.80;;;25.20;58.00;26.30;101351.00;;;;4988614;28;20323;-51
2022/05/20 00:30:05;;;;;;;5.68;5.10;;;25.30;57.90;26.30;101359.00;;;;4987969;28;20267;-51
2022/05/20 00:32:30;;;;;;;5.28;4.75;;;25.20;57.90;26.30;101356.00;;;;4988422;28;20180;-51
2022/05/20 00:34:56;;;;;;;5.20;4.80;;;25.20;57.90;26.30;101356.00;;;;5010350;28;20298;-51
2022/05/20 00:37:22;;;;;;;4.93;4.43;;;25.20;58.10;26.30;101358.00;;;;5011045;28;20184;-52
2022/05/20 00:39:47;;;;;;;5.80;4.90;;;25.20;58.00;26.20;101357.00;;;;4997785;28;20188;-50
2022/05/20 00:42:16;;;;;;;6.10;5.53;;;25.20;57.90;26.20;101361.00;;;;4988357;28;20169;-50
2022/05/20 00:44:42;;;;;;;5.93;5.10;;;25.20;58.00;26.20;101358.00;;;;4971369;28;20207;-50
2022/05/20 00:47:08;;;;;;;5.65;5.15;;;25.20;57.90;26.20;101361.00;;;;4987943;28;20228;-51
2022/05/20 00:49:34;;;;;;;5.70;5.18;;;25.10;57.80;26.20;101358.00;;;;4988124;28;20209;-52
2022/05/20 00:52:00;;;;;;;6.10;5.60;;;25.10;57.80;26.20;101348.00;;;;4970921;28;20173;-50
2022/05/20 00:54:29;;;;;;;6.40;5.80;;;25.10;57.70;26.20;101340.00;;;;4988176;28;20737;-52
2022/05/20 00:57:04;;;;;;;6.05;5.45;;;25.10;58.50;26.20;101338.00;;;;4971206;28;20176;-51
2022/05/20 00:59:31;;;;;;;5.60;5.10;;;25.10;57.60;26.10;101347.00;;;;4987764;28;20307;-50
2022/05/20 01:02:00;;;;;;;5.85;5.03;;;25.10;57.60;26.10;101336.00;;;;4970817;28;20187;-51
2022/05/20 01:04:26;;;;;;;6.28;5.68;;;25.10;57.60;26.10;101345.00;;;;4971240;28;20182;-51
2022/05/20 01:06:52;;;;;;;6.43;5.82;;;25.10;57.60;26.10;101346.00;;;;4986831;28;20192;-51
2022/05/20 01:09:18;;;;;;;6.43;5.85;;;25.10;57.50;26.10;101334.00;;;;4987241;28;20227;-51
2022/05/20 01:11:43;;;;;;;5.83;5.37;;;25.00;57.40;26.10;101330.00;;;;4987860;28;20177;-51
2022/05/20 01:14:10;;;;;;;6.60;6.00;;;25.10;57.50;26.00;101337.00;;;;4986239;28;20168;-50
2022/05/20 01:16:36;;;;;;;6.23;5.70;;;25.00;57.40;26.00;101321.00;;;;4970402;28;20776;-51
2022/05/20 01:19:02;;;;;;;5.22;4.80;;;25.00;57.40;26.00;101331.00;;;;4970236;28;20199;-49
2022/05/20 01:21:27;;;;;;;7.07;6.40;;;25.00;57.50;26.00;101332.00;;;;4986192;28;20184;-52
2022/05/20 01:24:00;;;;;;;11.57;7.40;;;25.00;57.50;26.00;101319.00;;;;4987683;28;20177;-52
2022/05/20 01:26:25;;;;;;;7.43;6.73;;;25.00;57.90;26.00;101318.00;;;;4987807;28;20614;-53
2022/05/20 01:28:51;;;;;;;6.70;5.77;;;25.00;57.80;26.00;101315.00;;;;4987704;28;20192;-52
2022/05/20 01:31:17;;;;;;;8.20;7.07;;;25.00;57.60;26.00;101317.00;;;;4987703;28;20211;-51
2022/05/20 01:33:49;;;;;;;9.32;8.48;;;25.00;57.80;26.00;101326.00;;;;4987509;28;20417;-53
2022/05/20 01:36:21;;;;;;;8.30;7.45;;;25.00;57.60;25.90;101319.00;;;;4986694;28;20179;-51
2022/05/20 01:38:47;;;;;;;7.07;6.40;;;25.00;57.20;25.90;101316.00;;;;4990232;28;20267;-50
2022/05/20 01:41:27;;;;;;;8.90;8.10;;;24.90;57.20;25.90;101320.00;;;;4991224;28;20172;-51
2022/05/20 01:44:12;;;;;;;7.38;6.68;;;24.90;57.20;25.90;101313.00;;;;4990131;28;20347;-51
2022/05/20 01:47:08;;;;;;;7.00;6.40;;;24.90;57.20;25.90;101325.00;;;;4990137;28;20283;-51
2022/05/20 01:49:54;;;;;;;7.87;7.17;;;24.90;57.20;25.90;101311.00;;;;4991146;28;20248;-53
2022/05/20 01:52:37;;;;;;;7.30;6.20;;;25.00;57.20;25.80;101310.00;;;;4975644;28;20161;-52
2022/05/20 01:55:35;;;;;;;6.80;6.10;;;24.90;57.20;25.80;101317.00;;;;4973877;28;20180;-52
2022/05/20 01:58:21;;;;;;;6.43;5.93;;;24.80;57.10;25.80;101312.00;;;;4977363;28;20168;-51
2022/05/20 02:00:47;;;;;;;5.55;5.10;;;24.80;57.20;25.80;101309.00;;;;4973533;28;20274;-52
2022/05/20 02:03:29;;;;;;;5.72;5.22;;;24.80;57.20;25.70;101312.00;;;;4973068;28;20207;-51
2022/05/20 02:06:20;;;;;;;6.78;6.07;;;24.80;57.30;25.70;101304.00;;;;4973580;28;20183;-51
2022/05/20 02:09:00;;;;;;;6.33;5.77;;;24.70;57.30;25.70;101306.00;;;;4988611;28;20254;-52
2022/05/20 02:11:46;;;;;;;6.47;5.43;;;24.70;57.30;25.70;101299.00;;;;4974515;28;20244;-52
2022/05/20 02:14:25;;;;;;;6.50;5.90;;;24.70;57.30;25.70;101300.00;;;;4990259;28;20199;-54
2022/05/20 02:17:15;;;;;;;8.83;6.90;;;24.70;57.40;25.70;101298.00;;;;4988974;28;20263;-52
2022/05/20 02:19:52;;;;;;;8.10;7.40;;;24.70;57.40;25.70;101301.00;;;;4975168;28;20189;-51
2022/05/20 02:22:22;;;;;;;7.10;6.40;;;24.70;57.50;25.70;101299.00;;;;4988541;28;20187;-51
2022/05/20 02:24:47;;;;;;;7.57;6.83;;;24.70;57.30;25.70;101300.00;;;;4988673;28;20231;-53
2022/05/20 02:27:28;;;;;;;7.93;6.83;;;24.70;57.30;25.60;101294.00;;;;4989980;28;20291;-53
2022/05/20 02:30:25;;;;;;;6.53;6.03;;;24.70;57.40;25.60;101305.00;;;;4988861;28;20184;-51
2022/05/20 02:33:08;;;;;;;6.17;5.57;;;24.60;57.40;25.60;101301.00;;;;4984220;28;20673;-52
2022/05/20 02:35:34;;;;;;;6.40;5.80;;;24.70;57.50;25.60;101303.00;;;;4988721;28;20183;-51
2022/05/20 02:38:25;;;;;;;7.47;6.80;;;24.60;57.50;25.60;101299.00;;;;4988507;28;20180;-50
2022/05/20 02:40:53;;;;;;;7.50;6.80;;;24.70;57.60;25.60;101306.00;;;;4989337;28;20188;-52
2022/05/20 02:43:19;;;;;;;6.30;5.50;;;24.70;57.50;25.60;101297.00;;;;4989666;28;20244;-51
2022/05/20 02:45:46;;;;;;;6.10;5.60;;;24.60;57.50;25.60;101298.00;;;;4989463;28;20252;-53
2022/05/20 02:48:12;;;;;;;6.23;5.67;;;24.60;57.50;25.60;101300.00;;;;4988600;28;20931;-51
2022/05/20 02:50:38;;;;;;;6.83;6.23;;;24.60;57.50;25.60;101302.00;;;;4988069;28;20675;-51
2022/05/20 02:53:04;;;;;;;6.20;5.60;;;24.60;57.50;25.60;101299.00;;;;4989537;28;20176;-51
2022/05/20 02:55:30;;;;;;;6.97;6.30;;;24.50;57.50;25.50;101292.00;;;;4989260;28;20172;-51
2022/05/20 02:57:55;;;;;;;7.67;6.30;;;24.60;57.60;25.50;101291.00;;;;4989181;28;20180;-51
2022/05/20 03:05:51;;;;;;;6.57;5.97;;;24.50;57.60;25.50;101282.00;;;;4988954;28;20397;-52
2022/05/20 03:08:17;;;;;;;8.00;7.23;;;24.50;57.60;25.50;101284.00;;;;4988598;28;20243;-51
2022/05/20 03:10:43;;;;;;;7.57;6.90;;;24.50;57.70;25.50;101286.00;;;;4988906;28;20169;-52
2022/05/20 03:13:09;;;;;;;7.97;7.17;;;24.50;57.70;25.50;101290.00;;;;4988909;28;20223;-51
2022/05/20 03:15:37;;;;;;;10.53;9.53;;;24.50;57.80;25.50;101284.00;;;;4989128;28;20232;-53
2022/05/20 03:18:03;;;;;;;12.20;11.10;;;24.60;58.20;25.50;101244.00;;;;4987883;28;20283;-52
2022/05/20 03:20:29;;;;;;;12.97;10.50;;;24.50;57.80;25.50;101249.00;;;;4989171;28;20798;-51
2022/05/20 03:22:55;;;;;;;11.40;10.40;;;24.60;57.90;25.40;101282.00;;;;4989430;28;20173;-51
2022/05/20 03:25:21;;;;;;;9.40;8.50;;;24.50;57.70;25.40;101269.00;;;;4989102;28;20173;-50
2022/05/20 03:27:47;;;;;;;10.87;9.70;;;24.50;57.70;25.40;101270.00;;;;4988818;28;20279;-52
2022/05/20 03:30:13;;;;;;;9.77;8.97;;;24.40;57.80;25.40;101252.00;;;;4989031;28;20192;-52
2022/05/20 03:32:39;;;;;;;13.33;11.93;;;24.50;58.10;25.40;101252.00;;;;4988953;28;20242;-50
2022/05/20 03:35:05;;;;;;;13.40;12.10;;;24.50;57.80;25.40;101253.00;;;;4989345;28;20187;-51
2022/05/20 03:37:31;;;;;;;13.50;12.20;;;24.50;57.80;25.40;101253.00;;;;4988838;28;20188;-50
2022/05/20 03:39:57;;;;;;;11.70;10.70;;;24.50;57.70;25.40;101255.00;;;;4987949;28;20394;-52
2022/05/20 03:42:23;;;;;;;12.07;10.90;;;24.50;57.60;25.40;101262.00;;;;4988940;28;20176;-51
2022/05/20 03:44:49;;;;;;;8.30;7.63;;;24.50;57.60;25.40;101259.00;;;;4989016;28;20579;-52
2022/05/20 03:47:15;;;;;;;9.10;8.30;;;24.40;57.60;25.40;101261.00;;;;4983064;28;20237;-52
2022/05/20 03:49:41;;;;;;;11.80;10.70;;;24.40;57.80;25.40;101259.00;;;;4979747;28;20204;-52
2022/05/20 03:52:07;;;;;;;12.47;11.37;;;24.40;57.90;25.30;101264.00;;;;4988417;28;20190;-52
2022/05/20 03:54:33;;;;;;;11.33;10.27;;;24.40;58.20;25.30;101265.00;;;;4988507;28;20260;-52
2022/05/20 03:57:00;;;;;;;11.37;10.10;;;24.40;57.70;25.30;101263.00;;;;4987907;28;20173;-52
2022/05/20 03:59:27;;;;;;;11.07;10.07;;;24.40;57.80;25.30;101268.00;;;;4987423;28;20251;-51
2022/05/20 04:01:59;;;;;;;12.10;11.07;;;24.40;57.70;25.30;101265.00;;;;4987704;28;20179;-51
2022/05/20 04:04:32;;;;;;;11.57;10.50;;;24.40;57.80;25.30;101258.00;;;;4994813;28;20220;-54
2022/05/20 04:06:59;;;;;;;12.97;11.77;;;24.40;57.90;25.30;101251.00;;;;5009968;28;20204;-52
2022/05/20 04:09:25;;;;;;;12.97;11.60;;;24.40;58.00;25.30;101257.00;;;;5008454;28;20231;-49
2022/05/20 04:11:57;;;;;;;12.70;11.53;;;24.40;57.80;25.30;101250.00;;;;4987018;28;20463;-51
2022/05/20 04:14:25;;;;;;;9.80;8.90;;;24.30;57.70;25.20;101254.00;;;;4987238;28;20161;-52
2022/05/20 04:16:55;;;;;;;9.63;8.83;;;24.30;57.80;25.20;101260.00;;;;4970922;28;20177;-52
2022/05/20 04:19:22;;;;;;;9.97;9.10;;;24.30;58.00;25.20;101254.00;;;;4987765;28;20204;-52
2022/05/20 04:21:52;;;;;;;11.60;10.60;;;24.20;57.90;25.20;101257.00;;;;4987441;28;20211;-52
2022/05/20 04:24:19;;;;;;;13.57;12.37;;;24.30;58.10;25.20;101266.00;;;;4988308;28;20214;-50
2022/05/20 04:26:44;;;;;;;13.03;11.93;;;24.30;58.10;25.20;101259.00;;;;4988013;28;20203;-51
2022/05/20 04:29:10;;;;;;;10.53;9.63;;;24.30;58.10;25.20;101262.00;;;;4987947;28;20197;-52
2022/05/20 04:31:38;;;;;;;10.70;9.47;;;24.30;58.10;25.20;101253.00;;;;4987314;28;20523;-54
2022/05/20 04:34:04;;;;;;;11.33;10.23;;;24.20;58.00;25.20;101266.00;;;;4971016;28;20184;-50
2022/05/20 04:36:30;;;;;;;11.10;10.00;;;24.20;58.00;25.20;101262.00;;;;4987830;28;20183;-50
2022/05/20 04:38:55;;;;;;;13.60;12.03;;;24.20;58.00;25.10;101267.00;;;;4987523;28;20199;-51
2022/05/20 04:46:58;;;;;;;14.70;13.47;;;24.20;58.30;25.10;101255.00;;;;4987594;28;20295;-51
2022/05/20 04:49:29;;;;;;;13.43;12.20;;;24.20;58.30;25.10;101263.00;;;;4987475;28;20241;-51
2022/05/20 04:51:55;;;;;;;14.43;13.03;;;24.20;58.30;25.10;101255.00;;;;4987502;28;20610;-53
2022/05/20 04:57:05;;;;;;;21.53;15.73;;;24.20;58.50;25.00;101248.00;;;;4986783;28;20274;-52
2022/05/20 04:59:38;;;;;;;16.53;14.97;;;24.10;58.40;25.10;101246.00;;;;4986759;28;20242;-51
2022/05/20 05:02:04;;;;;;;16.10;14.70;;;24.20;58.90;25.10;101242.00;;;;4987088;28;20176;-51
2022/05/20 05:04:30;;;;;;;18.10;16.47;;;24.10;58.50;25.10;101244.00;;;;4986962;28;20176;-51
2022/05/20 05:06:56;;;;;;;16.63;15.13;;;24.10;58.50;25.00;101247.00;;;;4987257;28;20200;-52
2022/05/20 05:09:22;;;;;;;20.07;18.07;;;24.10;58.70;25.10;101249.00;;;;4986653;28;20276;-51
2022/05/20 05:11:47;;;;;;;17.70;16.10;;;24.10;59.50;25.10;101255.00;;;;4987023;28;20621;-51
2022/05/20 05:14:16;;;;;;;17.57;15.87;;;24.10;59.30;25.10;101246.00;;;;4986951;28;20176;-51
2022/05/20 05:16:43;;;;;;;14.60;13.30;;;24.10;59.10;25.00;101238.00;;;;4986777;28;20267;-52
2022/05/20 05:19:09;;;;;;;12.83;11.60;;;24.10;58.70;25.00;101228.00;;;;4986373;28;20226;-51
2022/05/20 05:21:35;;;;;;;13.40;12.00;;;24.10;58.70;25.00;101225.00;;;;4986365;28;20187;-50
2022/05/20 05:24:01;;;;;;;13.40;12.20;;;24.10;58.50;25.00;101169.00;;;;4985539;28;20326;-51
2022/05/20 05:26:31;;;;;;;20.63;18.63;;;24.00;58.50;25.00;101226.00;;;;4986461;28;20222;-50
2022/05/20 05:28:57;;;;;;;14.23;13.03;;;24.10;59.40;25.00;101225.00;;;;4985504;28;20243;-51
2022/05/20 05:31:24;;;;;;;14.93;13.63;;;24.10;59.10;25.00;101213.00;;;;4986673;28;20259;-50
2022/05/20 05:33:50;;;;;;;22.47;20.40;;;24.00;59.20;25.00;101222.00;;;;4986997;28;20176;-51
2022/05/20 05:36:17;;;;;;;20.20;18.33;;;24.10;59.50;25.00;101221.00;;;;4986864;28;20642;-50
2022/05/20 05:38:44;;;;;;;23.33;21.23;;;24.00;59.50;25.00;101231.00;;;;4986627;28;20215;-51
2022/05/20 05:41:10;;;;;;;20.97;19.07;;;24.00;60.40;25.00;101225.00;;;;4986319;28;20184;-51
2022/05/20 05:43:36;;;;;;;25.23;22.80;;;23.90;60.00;25.00;101224.00;;;;4986394;28;20223;-54
2022/05/20 05:46:02;;;;;;;22.37;20.43;;;23.90;61.30;25.00;101227.00;;;;4986405;28;20282;-51
2022/05/20 05:48:28;;;;;;;22.13;20.20;;;23.90;60.90;25.00;101222.00;;;;4985020;28;20662;-53
2022/05/20 05:50:55;;;;;;;16.73;15.33;;;23.90;61.00;25.00;101215.00;;;;4986369;28;20255;-51
2022/05/20 05:53:21;;;;;;;13.63;12.43;;;23.90;59.90;24.90;101207.00;;;;4986385;28;20539;-51
2022/05/20 05:55:53;;;;;;;14.47;13.27;;;23.90;59.40;24.90;101190.00;;;;4986161;28;20259;-50
2022/05/20 05:58:18;;;;;;;11.90;10.90;;;24.00;59.50;24.90;101195.00;;;;4985056;28;20189;-51
2022/05/20 06:00:44;;;;;;;14.23;13.03;;;24.00;59.30;24.90;101203.00;;;;4986639;28;20801;-51
2022/05/20 06:03:10;;;;;;;17.47;15.97;;;23.90;59.20;24.90;101176.00;;;;4986064;28;20179;-51
2022/05/20 06:05:36;;;;;;;13.13;11.77;;;23.90;59.60;24.90;101180.00;;;;4986599;28;20200;-53
2022/05/20 06:08:02;;;;;;;19.83;18.07;;;23.90;59.40;24.90;101179.00;;;;4986144;28;20208;-51
2022/05/20 06:10:28;;;;;;;16.17;14.77;;;23.90;60.30;24.90;101189.00;;;;4986216;28;20174;-52
2022/05/20 06:12:55;;;;;;;19.10;17.37;;;23.90;59.50;24.90;101190.00;;;;4984841;28;20184;-51
2022/05/20 06:15:22;;;;;;;24.67;22.40;;;23.90;59.90;24.90;101200.00;;;;4986420;28;20211;-52
2022/05/20 06:17:49;;;;;;;18.53;17.03;;;23.90;61.60;24.90;101199.00;;;;4985999;28;20263;-51
2022/05/20 06:20:15;;;;;;;18.83;17.23;;;23.90;60.30;24.90;101190.00;;;;4986702;28;20200;-52
2022/05/20 06:22:41;;;;;;;23.07;20.87;;;23.90;61.30;24.90;101196.00;;;;4985954;28;20188;-51
2022/05/20 06:25:08;;;;;;;24.70;22.50;;;23.90;61.40;24.90;101184.00;;;;4989956;28;20235;-51
2022/05/20 06:27:33;;;;;;;22.07;20.00;;;23.80;62.20;24.90;101187.00;;;;4988281;28;20207;-51
2022/05/20 06:29:59;;;;;;;16.83;15.43;;;23.80;61.50;24.90;101171.00;;;;4988267;28;20193;-51
2022/05/20 06:32:25;;;;;;;20.37;18.57;;;23.80;60.70;24.80;101168.00;;;;4989326;28;20165;-52
2022/05/20 06:40:20;;;;;;;19.37;17.67;;;23.80;62.60;24.80;101169.00;;;;4989536;28;20226;-51
2022/05/20 06:42:46;;;;;;;22.00;20.10;;;23.80;61.70;24.80;101176.00;;;;4988964;28;20676;-51
2022/05/20 06:45:13;;;;;;;22.53;20.43;;;23.80;62.30;24.80;101178.00;;;;4989421;28;20188;-52
2022/05/20 06:47:39;;;;;;;25.90;23.60;;;23.80;62.10;24.80;101168.00;;;;4989548;28;20761;-50
2022/05/20 06:50:05;;;;;;;27.40;25.00;;;23.80;62.70;24.80;101182.00;;;;4989603;28;20196;-51
2022/05/20 06:52:31;;;;;;;27.27;24.77;;;23.80;63.00;24.80;101176.00;;;;4989005;28;20264;-50
2022/05/20 06:54:57;;;;;;;20.73;18.93;;;23.80;63.30;24.80;101181.00;;;;4989152;28;20628;-50
2022/05/20 06:57:24;;;;;;;18.57;16.77;;;23.80;61.80;24.80;101177.00;;;;4989023;28;20696;-50
2022/05/20 06:59:50;;;;;;;18.13;16.63;;;23.80;61.90;24.80;101183.00;;;;4989415;28;20539;-51
2022/05/20 07:02:16;;;;;;;25.30;22.83;;;23.80;61.70;24.80;101188.00;;;;4989277;28;20885;-50
2022/05/20 07:04:42;;;;;;;25.63;23.33;;;23.80;63.10;24.80;101192.00;;;;4989293;28;20227;-51
2022/05/20 07:07:08;;;;;;;27.00;24.57;;;23.80;63.70;24.70;101189.00;;;;4987351;28;20223;-50
2022/05/20 07:09:33;;;;;;;23.77;21.47;;;23.70;63.90;24.70;101183.00;;;;4988594;28;20188;-50
2022/05/20 07:11:59;;;;;;;21.90;19.97;;;23.70;63.10;24.70;101171.00;;;;4988204;28;20169;-51
2022/05/20 07:14:25;;;;;;;17.10;15.60;;;23.70;63.20;24.70;101174.00;;;;4988170;28;20204;-50
2022/05/20 07:16:51;;;;;;;19.43;17.73;;;23.70;62.30;24.70;101168.00;;;;4989219;28;20169;-50
2022/05/20 07:19:17;;;;;;;15.70;14.30;;;23.80;62.60;24.70;101164.00;;;;4988849;28;20278;-51
2022/05/20 07:21:42;;;;;;;18.80;17.10;;;23.80;62.20;24.70;101157.00;;;;4989110;28;20242;-51
2022/05/20 07:24:08;;;;;;;21.13;19.23;;;23.80;62.50;24.70;101164.00;;;;4989230;28;20204;-50
2022/05/20 07:26:35;;;;;;;21.80;19.80;;;23.80;62.50;24.70;101151.00;;;;4989307;28;20206;-50
2022/05/20 07:29:01;;;;;;;17.03;15.53;;;23.80;63.00;24.70;101148.00;;;;4988783;28;20230;-50
2022/05/20 07:31:26;;;;;;;16.17;14.77;;;23.70;62.40;24.70;101132.00;;;;4988914;28;20792;-51
2022/05/20 07:33:52;;;;;;;17.33;15.63;;;23.70;62.40;24.70;101128.00;;;;4889472;28;20172;-51
2022/05/20 07:36:18;;;;;;;16.80;15.30;;;23.60;62.30;24.70;101123.00;;;;4992289;28;20187;-50
2022/05/20 07:38:44;;;;;;;17.43;15.77;;;23.60;62.30;24.70;101109.00;;;;5009851;28;20239;-51
2022/05/20 07:41:12;;;;;;;18.50;16.70;;;23.60;62.70;24.70;101106.00;;;;5006807;28;20180;-51
2022/05/20 07:43:38;;;;;;;16.80;15.20;;;23.70;63.10;24.70;101112.00;;;;4991208;28;20185;-50
2022/05/20 07:46:04;;;;;;;16.33;14.73;;;23.60;62.60;24.70;101117.00;;;;4988669;28;20189;-51
2022/05/20 07:48:29;;;;;;;16.80;15.27;;;23.70;63.20;24.60;101109.00;;;;4988104;28;20780;-51
2022/05/20 07:51:13;;;;;;;18.33;16.70;;;23.70;63.20;24.70;101111.00;;;;4988403;28;20184;-51
2022/05/20 07:53:56;;;;;;;16.90;15.37;;;23.70;62.80;24.70;101085.00;;;;4987405;28;20176;-49
2022/05/20 07:56:32;;;;;;;16.37;14.67;;;23.80;63.40;24.70;101109.00;;;;4971048;28;20176;-52
2022/05/20 07:59:16;;;;;;;16.23;14.53;;;23.80;63.10;24.70;101102.00;;;;4986804;28;20202;-52
2022/05/20 08:01:44;;;;;;;20.93;19.03;;;23.80;63.50;24.70;101089.00;;;;4971294;28;20164;-52
2022/05/20 08:07:16;;;;;;;16.60;15.00;;;23.80;64.70;24.60;101099.00;;;;4975558;28;20227;-51
2022/05/20 08:09:42;;;;;;;18.73;16.83;;;23.80;64.30;24.70;101096.00;;;;4971026;28;20708;-53
2022/05/20 08:12:08;;;;;;;14.67;13.07;;;23.80;65.00;24.70;101099.00;;;;4988448;28;20184;-51
2022/05/20 08:14:34;;;;;;;14.53;13.07;;;23.70;64.60;24.70;101087.00;;;;4988709;28;20180;-51
2022/05/20 08:17:00;;;;;;;17.67;15.10;;;23.80;64.80;24.80;101105.00;;;;4988276;28;20184;-51
2022/05/20 08:19:26;;;;;;;17.27;15.43;;;23.80;65.20;24.80;101111.00;;;;4988082;28;20704;-52
2022/05/20 08:21:52;;;;;;;18.50;16.70;;;23.80;64.50;24.80;101110.00;;;;4987961;28;20183;-51
2022/05/20 08:24:17;;;;;;;18.87;16.53;;;23.80;65.30;24.80;101112.00;;;;4987991;28;20177;-52
2022/05/20 08:26:43;;;;;;;20.70;18.67;;;23.80;65.50;24.80;101099.00;;;;4987897;28;20196;-50
2022/05/20 08:29:12;;;;;;;18.67;16.97;;;23.80;66.40;24.80;101072.00;;;;4987182;28;20203;-50
2022/05/20 08:31:39;;;;;;;19.20;17.40;;;23.80;65.30;24.80;101089.00;;;;4987916;28;20176;-50
2022/05/20 08:34:04;;;;;;;22.40;20.10;;;23.80;65.30;24.80;101080.00;;;;4987776;28;20173;-51
2022/05/20 08:36:30;;;;;;;20.40;18.53;;;23.80;67.20;24.80;101086.00;;;;4988125;28;20259;-52
2022/05/20 08:38:56;;;;;;;20.50;18.57;;;23.80;66.30;24.80;101083.00;;;;4987202;28;20252;-50
2022/05/20 08:41:30;;;;;;;18.67;16.77;;;23.70;66.90;24.70;101070.00;;;;4987729;28;20176;-51
2022/05/20 08:43:56;;;;;;;17.67;16.03;;;23.70;66.30;24.80;101071.00;;;;4971126;28;20235;-51
2022/05/20 08:46:23;;;;;;;17.23;15.37;;;23.70;66.70;24.80;101064.00;;;;4987691;28;20295;-51
2022/05/20 08:48:54;;;;;;;15.23;13.73;;;23.70;66.10;24.80;101065.00;;;;4986509;28;20204;-50
2022/05/20 08:51:21;;;;;;;15.43;14.03;;;23.80;65.50;24.80;101070.00;;;;4987174;28;20168;-52
2022/05/20 08:53:47;;;;;;;14.60;13.27;;;23.80;66.00;24.80;101068.00;;;;4970937;28;20168;-53
2022/05/20 08:56:18;;;;;;;15.57;13.93;;;23.80;66.20;24.80;100990.00;;;;4987493;28;20641;-52
2022/05/20 08:58:55;;;;;;;13.13;11.83;;;23.80;66.20;24.80;101050.00;;;;4986834;28;20757;-52
2022/05/20 09:01:32;;;;;;;18.50;12.33;;;23.80;66.70;24.90;101036.00;;;;4970968;28;20160;-52
2022/05/20 09:03:58;;;;;;;13.43;12.10;;;23.80;67.50;24.90;101035.00;;;;4987628;28;20176;-52
2022/05/20 09:06:24;;;;;;;14.63;11.73;;;23.80;66.70;24.90;101022.00;;;;4987712;28;20669;-51
2022/05/20 09:09:09;;;;;;;13.57;12.17;;;23.80;66.90;24.90;101025.00;;;;4986275;28;20195;-51
2022/05/20 09:11:34;;;;;;;14.03;11.87;;;23.80;67.20;24.90;101015.00;;;;4987112;28;20173;-49
2022/05/20 09:17:16;;;;;;;12.50;11.20;;;23.90;67.70;24.90;101017.00;;;;4987263;28;20163;-52
2022/05/20 09:20:05;;;;;;;13.23;12.00;;;23.90;67.40;24.90;101014.00;;;;4987653;28;20196;-51
2022/05/20 09:22:37;;;;;;;16.53;14.97;;;23.90;66.70;24.90;101008.00;;;;4986314;28;20167;-52
2022/05/20 09:25:10;;;;;;;15.03;13.50;;;23.90;66.70;25.00;101007.00;;;;4986906;28;20250;-52
2022/05/20 09:27:39;;;;;;;14.57;13.27;;;23.90;66.60;25.00;101007.00;;;;4986355;28;20586;-52
2022/05/20 09:30:12;;;;;;;12.20;10.57;;;23.90;67.80;25.00;101000.00;;;;4986219;28;20207;-51
2022/05/20 09:32:54;;;;;;;14.77;11.33;;;24.00;68.20;25.00;100989.00;;;;4987621;28;20176;-52
2022/05/20 09:35:19;;;;;;;12.63;11.53;;;24.00;67.60;25.00;100982.00;;;;4971246;28;20161;-51
2022/05/20 09:37:47;;;;;;;13.03;11.67;;;24.00;67.80;25.00;100980.00;;;;4987016;28;20203;-50
2022/05/20 09:40:47;;;;;;;12.77;11.57;;;24.00;67.70;25.10;100981.00;;;;4977244;28;20203;-51
2022/05/20 09:43:32;;;;;;;13.03;11.87;;;24.00;68.20;25.10;100978.00;;;;4987768;28;20247;-52
2022/05/20 09:46:00;;;;;;;11.97;10.87;;;24.00;67.80;25.10;100974.00;;;;4970223;28;20263;-51
2022/05/20 09:48:56;;;;;;;13.70;11.17;;;24.00;68.20;25.10;100963.00;;;;4969512;28;20408;-52
2022/05/20 09:51:28;;;;;;;12.60;11.50;;;24.00;68.20;25.10;100955.00;;;;4986368;28;20165;-50
2022/05/20 09:54:16;;;;;;;11.53;10.47;;;24.00;68.20;25.10;100951.00;;;;4970477;28;20658;-51
2022/05/20 09:56:46;;;;;;;13.17;11.97;;;24.10;68.50;25.10;100960.00;;;;4970393;28;20176;-51
2022/05/20 09:59:42;;;;;;;11.47;10.43;;;24.10;68.40;25.10;100945.00;;;;4988729;28;20200;-51
2022/05/20 10:02:29;;;;;;;11.40;10.40;;;24.10;68.40;25.10;100950.00;;;;4976642;28;20173;-53
2022/05/20 10:05:28;;;;;;;11.93;10.80;;;24.10;68.40;25.20;100951.00;;;;4975238;28;20228;-54
2022/05/20 10:08:42;;;;;;;10.93;10.00;;;24.10;68.50;25.10;100954.00;;;;4988145;28;20219;-53
2022/05/20 10:11:19;;;;;;;11.40;9.73;;;24.10;69.00;25.10;100948.00;;;;4972977;28;20244;-52
2022/05/20 10:14:13;;;;;;;10.63;9.57;;;24.10;69.10;25.20;100939.00;;;;4987589;28;20168;-52
2022/05/20 10:17:09;;;;;;;11.00;10.00;;;24.10;69.10;25.20;100932.00;;;;4882148;28;20271;-52
2022/05/20 10:20:17;;;;;;;10.70;9.60;;;24.20;69.60;25.20;100914.00;;;;4988969;28;20212;-52
2022/05/20 10:22:45;;;;;;;11.00;9.97;;;24.30;69.00;25.20;100901.00;;;;4990417;28;20211;-56
2022/05/20 10:25:37;;;;;;;10.97;9.87;;;24.30;69.60;25.30;100894.00;;;;4989958;28;20836;-53
2022/05/20 10:34:39;;;;;;;8.50;7.77;;;24.40;69.50;25.30;100855.00;;;;4971681;28;20224;-54
2022/05/20 10:37:22;;;;;;;8.53;7.63;;;24.40;69.50;25.30;100825.00;;;;4971090;28;20168;-50
2022/05/20 10:40:06;;;;;;;7.17;6.47;;;24.50;69.70;25.40;100803.00;;;;4969803;28;20189;-51
2022/05/20 10:43:32;;;;;;;7.83;7.00;;;24.40;69.50;25.40;100800.00;;;;4971229;28;20256;-53
2022/05/20 10:49:09;;;;;;;6.93;6.30;;;24.60;69.70;25.50;100794.00;;;;4969527;28;20680;-52
2022/05/20 10:51:50;;;;;;;7.03;6.20;;;24.60;69.40;25.50;100801.00;;;;4980365;28;20168;-52
2022/05/20 10:55:09;;;;;;;6.37;5.87;;;24.70;69.70;25.60;100788.00;;;;4989802;28;20156;-51
2022/05/20 10:58:07;;;;;;;5.90;5.30;;;24.70;69.70;25.60;100799.00;;;;4989270;28;20238;-54
2022/05/20 11:00:52;;;;;;;6.17;5.40;;;24.80;69.90;25.60;100784.00;;;;4972848;28;20208;-53
2022/05/20 11:03:39;;;;;;;5.78;5.28;;;24.80;69.40;25.70;100778.00;;;;4988984;28;20153;-51
2022/05/20 11:06:34;;;;;;;5.83;5.33;;;24.80;69.10;25.70;100780.00;;;;4988926;28;20178;-51
2022/05/20 11:09:07;;;;;;;5.60;5.20;;;24.80;68.80;25.70;100778.00;;;;4988412;28;20627;-52
2022/05/20 11:12:03;;;;;;;5.63;5.13;;;24.80;67.90;25.70;100769.00;;;;4989104;28;20172;-58
2022/05/20 11:14:54;;;;;;;5.53;4.97;;;24.70;68.20;25.50;100765.00;;;;4999549;28;20181;-50
2022/05/20 11:17:59;;;;;;;5.77;5.17;;;24.70;68.70;25.70;100737.00;;;;4980470;28;20226;-52
2022/05/20 11:21:09;;;;;;;7.63;5.03;;;24.70;69.00;25.80;100746.00;;;;4984162;28;20200;-50
2022/05/20 11:24:14;;;;;;;5.35;4.95;;;24.80;69.10;25.80;100637.00;;;;4991936;28;20180;-53
2022/05/20 11:26:57;;;;;;;5.10;4.60;;;24.90;69.20;25.80;100737.00;;;;4988734;28;20188;-51
2022/05/20 11:29:35;;;;;;;4.85;4.45;;;25.00;68.90;25.90;100737.00;;;;4987726;28;20195;-52
2022/05/20 11:32:02;;;;;;;5.20;4.72;;;25.00;69.30;25.90;100715.00;;;;4988894;28;20164;-52
2022/05/20 11:34:59;;;;;;;5.77;4.53;;;25.00;68.70;25.90;100714.00;;;;4987336;28;20626;-51